ZSPDVTSS

Guest
Details From ZSPD - Pudong
To VTSS - Songkhla Hat Yai Intl
Flight Number -
Tags Generated
Created
Modified
Stats Distance 1,888 nm / 3,497 km
Max Altitude 0 ft / 0 m
Waypoints 4
Social Downloads 0
Likes 0
Share VATSIM

Download

Looking for another format? Having issues loading an existing format? Contact us
Advertisement - Login to hide

Notes

Generated

Route

ZSPD PB HY VTSS

ID Type Via Altitude Latitude Longitude Leg Dist Tot Dist Heading (true) Name
O ZSPD APT - 0 ft / 0 m 31.15901˚ 121.81167˚ - 0 nm - -
PB NDB - 0 ft / 0 m 16.39583˚ 107.77194˚ 1172 nm 1172 nm 224° / 218° PHUBAI NDB
HY NDB - 0 ft / 0 m 6.93639˚ 100.38891˚ 714 nm 1887 nm 218° / 217° HAT YAI NDB
O VTSS APT - 0 ft / 0 m 6.93083˚ 100.37930˚ 0 nm 1888 nm 240° / 240° -

Altitude Profile

Advertisement - Login to hide

Weather


0- 5 10 15 20 25 30 35+ Temperature / ° C

Clouds and Precipitation
Forecast for 2017-12-17 18:00 UTC. Updated an hour ago

Ground ~20,000 ft ~40,000 ft Winds

ZSPD

Details ICAO ZSPD (PVG)
Name PUDONG
Region China
Timezone Asia/Shanghai (UTC+8.0)
Stats Elevation 13 ft / 4 m (AMSL)
Location 31.143427° 121.805092°
Runways 2
Magnetic Variation 5.979° W

METAR

ZSPD 171600Z 28003MPS CAVOK 01/M05 Q1034 NOSIG

Decode

TAF

Not found

Departure Runways

ID Width Length Bearing (true) Bearing (mag) Surface Threshold Offset Overrun Length
16 197 ft / 60 m 12,500 ft / 3,810 m 162.09° 168.07° Concrete 0 ft / 0 m 395 ft / 120 m
17 197 ft / 60 m 13,155 ft / 4,010 m 162.09° 168.07° Concrete 0 ft / 0 m 196 ft / 60 m
34 197 ft / 60 m 12,500 ft / 3,810 m 342.10° 348.08° Concrete 0 ft / 0 m 395 ft / 120 m
35 197 ft / 60 m 13,155 ft / 4,010 m 342.10° 348.08° Concrete 0 ft / 0 m 196 ft / 60 m

VTSS

Details ICAO VTSS (HDY)
Name Songkhla Hat Yai Intl
Region Thailand
Timezone Asia/Bangkok (UTC+7.0)
Stats Elevation 90 ft / 27 m (AMSL)
Location 6.932513° 100.392977°
Runways 1
Magnetic Variation 0.258° W

METAR

VTSS 171600Z 05006KT 9999 FEW018CB SCT028 BKN100 25/24 Q1013 NOSIG

Decode

TAF

TAF VTSS 171100Z 1712/1812 08004KT 9999 FEW020 TEMPO 1713/1718 VRB15KT 3000 TSRA FEW016CB SCT018 BKN100 TEMPO 1721/1803 VRB15KT 3000 TSRA FEW016CB SCT018 BKN100

Decode

Destination Runways

ID Width Length Bearing (true) Bearing (mag) Surface Threshold Offset Overrun Length
08 148 ft / 45 m 9,984 ft / 3,043 m 82.94° 83.20° Asphalt 0 ft / 0 m 197 ft / 60 m
26 148 ft / 45 m 9,984 ft / 3,043 m 262.95° 263.21° Asphalt 0 ft / 0 m 197 ft / 60 m

Approach Navaids

Runway Type Ident Frequency Range Bearing (true) Bearing (mag) Slope Elevation
26 Localiser IHTY 109.90 MHz 18 nm / 33 km 262.92° 263.18° - 65 ft / 20 m (AMSL)
26 Glidescope IHTY 109.90 MHz 10 nm / 19 km 262.94° 263.20° 3.00° 58 ft / 18 m (AMSL)
26 DME IHTY 109.90 MHz 18 nm / 33 km - - - 124 ft / 38 m (AMSL)